createdAt,value
2023-04-19T00:00:57.711Z,0
2023-04-19T00:03:57.184Z,0.6666666666666666
2023-04-19T00:06:57.577Z,0
2023-04-19T00:09:56.940Z,0
2023-04-19T00:12:56.991Z,0
2023-04-19T00:15:57.069Z,0
2023-04-19T00:18:56.787Z,0
2023-04-19T00:21:57.594Z,0
2023-04-19T00:24:57.536Z,0
2023-04-19T00:27:57.027Z,0
2023-04-19T00:30:57.560Z,0.3333333333333333
2023-04-19T00:33:57.581Z,0
2023-04-19T00:36:57.189Z,0
2023-04-19T00:39:57.475Z,0.3333333333333333
2023-04-19T00:42:57.695Z,0
2023-04-19T00:45:57.045Z,0
2023-04-19T00:48:57.020Z,0
2023-04-19T00:51:57.189Z,0
2023-04-19T00:54:56.984Z,0.3333333333333333
2023-04-19T00:57:57.405Z,0
2023-04-19T01:00:57.582Z,0
2023-04-19T01:03:57.024Z,0
2023-04-19T01:06:57.809Z,0
2023-04-19T01:09:57.573Z,0
2023-04-19T01:12:56.720Z,0
2023-04-19T01:15:56.728Z,0
2023-04-19T01:18:57.050Z,0
2023-04-19T01:21:57.365Z,0
2023-04-19T01:24:56.710Z,0
2023-04-19T01:27:56.944Z,0
2023-04-19T01:30:58.080Z,0
2023-04-19T01:33:56.625Z,0
2023-04-19T01:36:57.252Z,0
2023-04-19T01:39:57.747Z,0
2023-04-19T01:42:57.307Z,0
2023-04-19T01:45:57.457Z,0.3333333333333333
2023-04-19T01:48:57.755Z,0.3333333333333333
2023-04-19T01:51:57.381Z,0.3333333333333333
2023-04-19T01:54:56.975Z,0
2023-04-19T01:57:57.283Z,0
2023-04-19T02:00:58.476Z,0.3333333333333333
2023-04-19T02:03:57.685Z,0
2023-04-19T02:06:57.536Z,0
2023-04-19T02:09:57.988Z,0
2023-04-19T02:12:57.199Z,0
2023-04-19T02:15:57.221Z,0
2023-04-19T02:18:57.004Z,0
2023-04-19T02:21:57.976Z,0
2023-04-19T02:24:57.087Z,0.3333333333333333
2023-04-19T02:27:57.764Z,0
2023-04-19T02:30:57.170Z,0
2023-04-19T02:33:57.703Z,0
2023-04-19T02:36:56.618Z,0
2023-04-19T02:39:57.047Z,0
2023-04-19T02:42:57.575Z,0.3333333333333333
2023-04-19T02:45:57.372Z,0.3333333333333333
2023-04-19T02:48:57.000Z,0
2023-04-19T02:51:57.483Z,0
2023-04-19T02:54:57.641Z,0.3333333333333333
2023-04-19T02:57:57.316Z,1
2023-04-19T03:00:57.725Z,0
2023-04-19T03:03:57.540Z,0
2023-04-19T03:06:57.000Z,0
2023-04-19T03:09:58.098Z,0
2023-04-19T03:12:57.803Z,0
2023-04-19T03:15:57.278Z,0
2023-04-19T03:18:58.034Z,0.3333333333333333
2023-04-19T03:21:57.813Z,0
2023-04-19T03:24:56.988Z,0
2023-04-19T03:27:57.849Z,0
2023-04-19T03:30:57.117Z,0
2023-04-19T03:33:57.165Z,0
2023-04-19T03:36:57.117Z,0
2023-04-19T03:39:57.643Z,0
2023-04-19T03:42:57.446Z,0
2023-04-19T03:45:57.841Z,0
2023-04-19T03:48:56.677Z,0
2023-04-19T03:51:56.920Z,1.3333333333333333
2023-04-19T03:54:57.017Z,0
2023-04-19T03:57:57.465Z,0
2023-04-19T04:00:57.233Z,0
2023-04-19T04:03:57.404Z,0
2023-04-19T04:06:57.740Z,0.3333333333333333
2023-04-19T04:09:57.032Z,0.6666666666666666
2023-04-19T04:12:57.335Z,3
2023-04-19T04:15:57.844Z,3
2023-04-19T04:18:57.117Z,4.666666666666667
2023-04-19T04:22:02.874Z,5.333333333333333
2023-04-19T04:24:57.330Z,8
2023-04-19T04:27:57.226Z,10.333333333333334
2023-04-19T04:30:57.523Z,12.333333333333334
2023-04-19T04:33:57.213Z,14.666666666666666
2023-04-19T04:36:57.144Z,16.333333333333332
2023-04-19T04:39:57.303Z,19
2023-04-19T04:42:56.727Z,22.333333333333332
2023-04-19T04:45:58.151Z,27.666666666666668
2023-04-19T04:48:57.982Z,37
2023-04-19T04:51:57.691Z,45
2023-04-19T04:54:57.395Z,54.666666666666664
2023-04-19T04:57:57.945Z,61.333333333333336
2023-04-19T05:00:57.774Z,71.66666666666667
2023-04-19T05:03:57.462Z,80
2023-04-19T05:06:58.190Z,89
2023-04-19T05:09:57.981Z,93.66666666666667
2023-04-19T05:12:57.363Z,104
2023-04-19T05:15:57.303Z,110.33333333333333
2023-04-19T05:18:57.446Z,109
2023-04-19T05:21:57.560Z,109.33333333333333
2023-04-19T05:24:57.863Z,111.66666666666667
2023-04-19T05:27:58.026Z,117.33333333333333
2023-04-19T05:30:57.566Z,128.33333333333334
2023-04-19T05:33:58.198Z,136.33333333333334
2023-04-19T05:36:57.935Z,149.66666666666666
2023-04-19T05:39:57.770Z,199.66666666666666
2023-04-19T05:42:57.126Z,218.33333333333334
2023-04-19T05:45:58.506Z,167.33333333333334
2023-04-19T05:48:57.742Z,153.33333333333334
2023-04-19T05:51:57.566Z,145.66666666666666
2023-04-19T05:54:57.016Z,160.66666666666666
2023-04-19T05:57:57.310Z,197
2023-04-19T06:00:57.850Z,256.3333333333333
2023-04-19T06:03:58.048Z,271.6666666666667
2023-04-19T06:06:57.903Z,306.3333333333333
2023-04-19T06:09:57.799Z,366
2023-04-19T06:12:57.641Z,337.3333333333333
2023-04-19T06:15:58.324Z,338.6666666666667
2023-04-19T06:18:57.371Z,338.6666666666667
2023-04-19T06:21:57.523Z,331.3333333333333
2023-04-19T06:24:57.989Z,405.3333333333333
2023-04-19T06:27:58.056Z,415
2023-04-19T06:30:57.834Z,354.6666666666667
2023-04-19T06:33:57.112Z,394.3333333333333
2023-04-19T06:36:57.186Z,360.6666666666667
2023-04-19T06:39:57.408Z,326
2023-04-19T06:42:57.371Z,324
2023-04-19T06:45:57.345Z,343
2023-04-19T06:48:57.945Z,304.3333333333333
2023-04-19T06:51:57.157Z,300
2023-04-19T06:54:57.046Z,313
2023-04-19T06:57:57.191Z,299.3333333333333
2023-04-19T07:00:57.975Z,314.3333333333333
2023-04-19T07:03:57.665Z,334.6666666666667
2023-04-19T07:06:57.634Z,362
2023-04-19T07:09:57.745Z,335
2023-04-19T07:12:56.729Z,357
2023-04-19T07:15:58.076Z,389.3333333333333
2023-04-19T07:18:56.904Z,490.3333333333333
2023-04-19T07:21:57.111Z,517.6666666666666
2023-04-19T07:24:57.775Z,488
2023-04-19T07:27:57.556Z,559.3333333333334
2023-04-19T07:30:58.110Z,619.6666666666666
2023-04-19T07:33:57.272Z,734.6666666666666
2023-04-19T07:36:58.256Z,889.6666666666666
2023-04-19T07:39:57.228Z,941
2023-04-19T07:42:57.777Z,897
2023-04-19T07:45:57.084Z,884.6666666666666
2023-04-19T07:48:57.204Z,725.6666666666666
2023-04-19T07:51:57.399Z,606.3333333333334
2023-04-19T07:54:57.162Z,554.6666666666666
2023-04-19T07:57:58.024Z,637.6666666666666
2023-04-19T08:00:57.357Z,629
2023-04-19T08:03:57.574Z,606.3333333333334
2023-04-19T08:06:57.345Z,508.6666666666667
2023-04-19T08:09:56.992Z,409.3333333333333
2023-04-19T08:13:05.936Z,385
2023-04-19T08:18:56.870Z,431
2023-04-19T08:21:56.959Z,482
2023-04-19T08:24:57.353Z,501
2023-04-19T08:27:57.391Z,804.6666666666666
2023-04-19T08:30:57.547Z,738
2023-04-19T08:33:57.281Z,680.6666666666666
2023-04-19T08:37:04.006Z,643.6666666666666
2023-04-19T08:39:58.756Z,578.3333333333334
2023-04-19T08:42:57.593Z,477.3333333333333
2023-04-19T08:45:57.323Z,415.6666666666667
2023-04-19T08:48:58.221Z,376.6666666666667
2023-04-19T08:51:57.645Z,419.3333333333333
2023-04-19T08:54:57.134Z,309
2023-04-19T08:57:57.456Z,235.66666666666666
2023-04-19T09:00:56.871Z,206.33333333333334
2023-04-19T09:04:07.119Z,198
2023-04-19T09:06:57.664Z,217.33333333333334
2023-04-19T09:10:02.944Z,241.66666666666666
2023-04-19T09:12:58.158Z,370.6666666666667
2023-04-19T09:15:57.005Z,548.6666666666666
2023-04-19T09:19:22.372Z,547.3333333333334
2023-04-19T09:21:57.478Z,780.6666666666666
2023-04-19T09:27:57.072Z,821.6666666666666
2023-04-19T09:31:05.754Z,784
2023-04-19T09:33:56.880Z,785
2023-04-19T09:37:04.676Z,853.6666666666666
2023-04-19T09:39:57.766Z,814.3333333333334
2023-04-19T09:43:08.902Z,554
2023-04-19T09:45:58.108Z,476
2023-04-19T09:48:58.806Z,389
2023-04-19T09:51:57.312Z,308.6666666666667
2023-04-19T09:54:56.842Z,261
2023-04-19T09:57:57.546Z,234.66666666666666
2023-04-19T10:01:10.716Z,208
2023-04-19T10:07:19.336Z,188.33333333333334
2023-04-19T10:10:02.335Z,199.66666666666666
2023-04-19T10:16:11.663Z,223.33333333333334
2023-04-19T10:18:57.002Z,216.33333333333334
2023-04-19T10:21:57.246Z,203.33333333333334
2023-04-19T10:24:57.792Z,207.66666666666666
2023-04-19T10:27:57.876Z,219.66666666666666
2023-04-19T10:30:58.169Z,206.66666666666666
2023-04-19T10:33:57.152Z,201.33333333333334
2023-04-19T10:36:56.634Z,203.66666666666666
2023-04-19T10:39:57.317Z,217.33333333333334
2023-04-19T10:42:58.275Z,196.33333333333334
2023-04-19T10:45:57.867Z,198.33333333333334
2023-04-19T10:48:57.114Z,235
2023-04-19T10:51:58.120Z,158.33333333333334
2023-04-19T10:54:56.920Z,115.33333333333333
2023-04-19T10:57:58.470Z,104.66666666666667
2023-04-19T11:00:58.610Z,122.66666666666667
2023-04-19T11:04:16.463Z,157.66666666666666
2023-04-19T11:06:57.647Z,162.33333333333334
2023-04-19T11:10:07.873Z,138.33333333333334
2023-04-19T11:12:57.642Z,149.33333333333334
2023-04-19T11:15:57.764Z,171
2023-04-19T11:18:57.477Z,150.33333333333334
2023-04-19T11:21:57.812Z,173.33333333333334
2023-04-19T11:24:57.609Z,200
2023-04-19T11:28:02.580Z,209.66666666666666
2023-04-19T11:30:57.402Z,157
2023-04-19T11:33:57.849Z,156.66666666666666
2023-04-19T11:36:56.831Z,195.33333333333334
2023-04-19T11:39:57.232Z,242.33333333333334
2023-04-19T11:43:02.411Z,294.3333333333333
2023-04-19T11:45:57.268Z,317
2023-04-19T11:48:57.766Z,327.3333333333333
2023-04-19T11:51:57.055Z,333.6666666666667
2023-04-19T11:54:57.900Z,341.6666666666667
2023-04-19T11:57:57.236Z,291
2023-04-19T12:00:58.141Z,373.6666666666667
2023-04-19T12:03:58.138Z,462.3333333333333
2023-04-19T12:06:57.979Z,305
2023-04-19T12:09:57.667Z,308.6666666666667
2023-04-19T12:12:57.637Z,225
2023-04-19T12:15:57.591Z,236.66666666666666
2023-04-19T12:18:56.727Z,303
2023-04-19T12:21:57.203Z,271.6666666666667
2023-04-19T12:24:57.527Z,290
2023-04-19T12:27:56.903Z,309.6666666666667
2023-04-19T12:30:57.409Z,287
2023-04-19T12:33:57.580Z,359
2023-04-19T12:36:57.138Z,353
2023-04-19T12:39:57.476Z,356
2023-04-19T12:42:57.178Z,359.3333333333333
2023-04-19T12:45:58.054Z,330.3333333333333
2023-04-19T12:48:57.576Z,318.6666666666667
2023-04-19T12:51:57.559Z,302.6666666666667
2023-04-19T12:54:57.104Z,307
2023-04-19T12:57:57.868Z,347
2023-04-19T13:00:57.828Z,414
2023-04-19T13:03:59.200Z,504.3333333333333
2023-04-19T13:06:57.248Z,574
2023-04-19T13:09:57.958Z,601
2023-04-19T13:12:57.197Z,691
2023-04-19T13:15:57.711Z,725.3333333333334
2023-04-19T13:18:57.498Z,745.6666666666666
2023-04-19T13:21:58.320Z,753
2023-04-19T13:24:57.153Z,630
2023-04-19T13:27:57.537Z,512.6666666666666
2023-04-19T13:30:58.084Z,362
2023-04-19T13:33:57.567Z,318
2023-04-19T13:36:57.788Z,303.6666666666667
2023-04-19T13:40:10.768Z,324
2023-04-19T13:42:57.742Z,369.3333333333333
2023-04-19T13:45:57.705Z,374
2023-04-19T13:48:57.483Z,369.6666666666667
2023-04-19T13:51:57.564Z,472.3333333333333
2023-04-19T13:54:57.533Z,629.3333333333334
2023-04-19T13:57:57.359Z,654
2023-04-19T14:00:57.960Z,657.3333333333334
2023-04-19T14:03:57.884Z,574
2023-04-19T14:06:57.388Z,534.3333333333334
2023-04-19T14:09:57.114Z,522.6666666666666
2023-04-19T14:12:57.020Z,531
2023-04-19T14:15:58.447Z,543.6666666666666
2023-04-19T14:18:57.437Z,547.6666666666666
2023-04-19T14:21:57.721Z,597.3333333333334
2023-04-19T14:24:57.007Z,636
2023-04-19T14:27:57.442Z,702
2023-04-19T14:30:56.960Z,822.3333333333334
2023-04-19T14:33:57.807Z,842.6666666666666
2023-04-19T14:36:57.701Z,829.3333333333334
2023-04-19T14:39:57.777Z,794
2023-04-19T14:42:57.307Z,787.3333333333334
2023-04-19T14:45:57.656Z,824
2023-04-19T14:48:56.948Z,849.6666666666666
2023-04-19T14:51:56.597Z,770.6666666666666
2023-04-19T14:54:57.429Z,680.6666666666666
2023-04-19T14:57:57.641Z,664
2023-04-19T15:00:58.001Z,581.3333333333334
2023-04-19T15:03:57.610Z,553.3333333333334
2023-04-19T15:06:58.057Z,508.6666666666667
2023-04-19T15:09:57.307Z,505.3333333333333
2023-04-19T15:12:57.330Z,490
2023-04-19T15:15:57.661Z,556.6666666666666
2023-04-19T15:18:57.729Z,547.6666666666666
2023-04-19T15:21:57.985Z,623.6666666666666
2023-04-19T15:24:57.658Z,632.6666666666666
2023-04-19T15:27:57.410Z,608
2023-04-19T15:30:57.812Z,572.6666666666666
2023-04-19T15:33:56.946Z,555.3333333333334
2023-04-19T15:36:57.924Z,585.6666666666666
2023-04-19T15:39:58.598Z,608.6666666666666
2023-04-19T15:42:57.742Z,528.3333333333334
2023-04-19T15:45:58.425Z,641.3333333333334
2023-04-19T15:48:57.452Z,658
2023-04-19T15:51:57.800Z,623.6666666666666
2023-04-19T15:54:57.283Z,636.3333333333334
2023-04-19T15:57:58.310Z,659.3333333333334
2023-04-19T16:00:58.400Z,580
2023-04-19T16:03:57.523Z,542.3333333333334
2023-04-19T16:06:57.909Z,486.6666666666667
2023-04-19T16:09:57.621Z,431.6666666666667
2023-04-19T16:12:58.649Z,404
2023-04-19T16:15:57.791Z,356.6666666666667
2023-04-19T16:18:57.782Z,362.3333333333333
2023-04-19T16:21:57.304Z,347
2023-04-19T16:24:57.242Z,330.3333333333333
2023-04-19T16:27:57.240Z,325.3333333333333
2023-04-19T16:30:57.777Z,336
2023-04-19T16:33:57.208Z,337
2023-04-19T16:36:57.772Z,341
2023-04-19T16:39:57.571Z,333.6666666666667
2023-04-19T16:42:57.780Z,317.6666666666667
2023-04-19T16:45:58.039Z,318
2023-04-19T16:48:57.691Z,306.6666666666667
2023-04-19T16:51:57.851Z,295
2023-04-19T16:54:58.060Z,280.3333333333333
2023-04-19T16:57:57.127Z,269.3333333333333
2023-04-19T17:00:58.584Z,262
2023-04-19T17:03:57.804Z,257.6666666666667
2023-04-19T17:06:58.077Z,250
2023-04-19T17:09:57.688Z,237.66666666666666
2023-04-19T17:12:57.349Z,223.66666666666666
2023-04-19T17:15:57.018Z,213.33333333333334
2023-04-19T17:19:03.566Z,195
2023-04-19T17:21:57.040Z,185.33333333333334
2023-04-19T17:24:57.727Z,181.33333333333334
2023-04-19T17:27:58.042Z,173.66666666666666
2023-04-19T17:30:57.697Z,167.33333333333334
2023-04-19T17:33:57.542Z,160
2023-04-19T17:36:57.873Z,151.66666666666666
2023-04-19T17:39:57.973Z,143.66666666666666
2023-04-19T17:42:58.139Z,131.33333333333334
2023-04-19T17:45:57.960Z,118.33333333333333
2023-04-19T17:48:57.957Z,109.66666666666667
2023-04-19T17:51:57.945Z,100.33333333333333
2023-04-19T17:54:57.982Z,93
2023-04-19T17:57:57.663Z,87
2023-04-19T18:00:58.524Z,76.66666666666667
2023-04-19T18:03:57.397Z,63.666666666666664
2023-04-19T18:06:57.558Z,52
2023-04-19T18:09:56.877Z,43
2023-04-19T18:12:57.530Z,33.666666666666664
2023-04-19T18:15:57.353Z,27
2023-04-19T18:18:57.025Z,20.666666666666668
2023-04-19T18:21:57.462Z,16.666666666666668
2023-04-19T18:24:57.605Z,13
2023-04-19T18:27:57.313Z,7
2023-04-19T18:30:57.948Z,6.333333333333333
2023-04-19T18:33:57.776Z,3.6666666666666665
2023-04-19T18:36:57.148Z,2.3333333333333335
2023-04-19T18:39:58.297Z,1.6666666666666667
2023-04-19T18:42:57.845Z,0.3333333333333333
2023-04-19T18:45:57.285Z,0
2023-04-19T18:48:57.412Z,0
2023-04-19T18:51:57.295Z,0
2023-04-19T18:54:57.900Z,0.3333333333333333
2023-04-19T18:57:56.961Z,0
2023-04-19T19:01:26.058Z,0.3333333333333333
2023-04-19T19:07:01.783Z,0
2023-04-19T19:09:57.221Z,0
2023-04-19T19:12:57.199Z,0
2023-04-19T19:15:57.544Z,0
2023-04-19T19:18:56.952Z,1.6666666666666667
2023-04-19T19:21:57.314Z,0.3333333333333333
2023-04-19T19:24:57.403Z,0
2023-04-19T19:28:07.084Z,0
2023-04-19T19:30:58.395Z,0
2023-04-19T19:34:18.187Z,0.3333333333333333
2023-04-19T19:36:57.790Z,0.6666666666666666
2023-04-19T19:39:57.190Z,0.3333333333333333
2023-04-19T19:42:57.701Z,0
2023-04-19T19:45:57.838Z,1
2023-04-19T19:48:57.341Z,0.3333333333333333
2023-04-19T19:51:59.427Z,0.3333333333333333
2023-04-19T19:54:57.435Z,0
2023-04-19T20:00:58.083Z,0
2023-04-19T20:03:57.601Z,0.6666666666666666
2023-04-19T20:07:28.822Z,0
2023-04-19T20:09:57.079Z,0
2023-04-19T20:12:57.539Z,0
2023-04-19T20:15:57.501Z,1
2023-04-19T20:18:57.589Z,0
2023-04-19T20:21:57.051Z,0
2023-04-19T20:24:57.900Z,1.3333333333333333
2023-04-19T20:27:57.462Z,0.3333333333333333
2023-04-19T20:30:57.594Z,0.6666666666666666
2023-04-19T20:33:57.197Z,0
2023-04-19T20:36:57.776Z,0
2023-04-19T20:39:58.147Z,0.3333333333333333
2023-04-19T20:42:57.567Z,0
2023-04-19T20:45:57.900Z,0
2023-04-19T20:49:03.092Z,0
2023-04-19T20:51:56.569Z,1
2023-04-19T20:54:57.929Z,0
2023-04-19T20:57:57.966Z,0
2023-04-19T21:00:57.722Z,0
2023-04-19T21:03:57.623Z,0
2023-04-19T21:06:59.138Z,0
2023-04-19T21:09:58.164Z,0
2023-04-19T21:12:57.809Z,0
2023-04-19T21:15:57.223Z,0
2023-04-19T21:18:57.194Z,0
2023-04-19T21:21:58.199Z,0.3333333333333333
2023-04-19T21:24:57.735Z,0
2023-04-19T21:27:57.698Z,0.3333333333333333
2023-04-19T21:30:57.947Z,0
2023-04-19T21:33:57.526Z,0
2023-04-19T21:36:57.330Z,0
2023-04-19T21:39:56.900Z,0
2023-04-19T21:42:57.648Z,0
2023-04-19T21:45:57.217Z,0
2023-04-19T21:48:57.936Z,0
2023-04-19T21:51:57.709Z,0
2023-04-19T21:54:56.845Z,0
2023-04-19T21:57:57.395Z,0
2023-04-19T22:00:57.889Z,0.6666666666666666
2023-04-19T22:03:57.701Z,0
2023-04-19T22:06:57.307Z,0
2023-04-19T22:09:58.143Z,0
2023-04-19T22:12:58.689Z,0
2023-04-19T22:15:57.578Z,0
2023-04-19T22:18:58.049Z,1
2023-04-19T22:21:57.691Z,0
2023-04-19T22:24:58.239Z,0
2023-04-19T22:27:57.014Z,0.3333333333333333
2023-04-19T22:30:57.428Z,0
2023-04-19T22:33:57.382Z,0
2023-04-19T22:36:57.931Z,0
2023-04-19T22:39:57.651Z,0
2023-04-19T22:42:57.602Z,0
2023-04-19T22:45:57.126Z,0.3333333333333333
2023-04-19T22:48:56.861Z,0
2023-04-19T22:51:57.124Z,0
2023-04-19T22:54:57.934Z,0
2023-04-19T22:57:57.461Z,0
2023-04-19T23:00:57.638Z,0
2023-04-19T23:03:56.846Z,0
2023-04-19T23:06:57.004Z,0
2023-04-19T23:09:57.262Z,0
2023-04-19T23:12:57.844Z,0
2023-04-19T23:16:01.183Z,0
2023-04-19T23:18:56.832Z,0
2023-04-19T23:21:57.098Z,0
2023-04-19T23:24:57.244Z,0
2023-04-19T23:27:57.302Z,0
2023-04-19T23:31:16.655Z,0
2023-04-19T23:33:57.494Z,0
2023-04-19T23:36:57.067Z,0
2023-04-19T23:39:57.525Z,0
2023-04-19T23:42:57.771Z,0
2023-04-19T23:45:57.001Z,0
2023-04-19T23:48:56.904Z,0
2023-04-19T23:51:57.078Z,0
2023-04-19T23:54:57.655Z,0
2023-04-19T23:57:56.850Z,0
